Time,TemperatureF,DewpointF,PressureIn,WindDirection,WindDirectionDegrees,WindSpeedMPH,WindSpeedGustMPH,Humidity,HourlyPrecipIn,Conditions,Clouds,dailyrainin,SoftwareType,DateUTC
2013-03-27 00:01:00,40.0,20.0,-100.00,SSW,213,3.0,4.0,45,0.00,,,-99.99,,2013-03-27 00:01:00,
2013-03-27 00:12:00,40.0,21.0,-100.00,SW,229,4.0,5.0,47,0.00,,,-99.99,,2013-03-27 00:12:00,
2013-03-27 00:21:00,40.0,21.0,-100.00,SW,215,2.0,3.0,46,0.00,,,-99.99,,2013-03-27 00:21:00,
2013-03-27 00:32:00,39.0,20.0,-100.00,SW,216,2.0,4.0,46,0.00,,,-99.99,,2013-03-27 00:32:00,
2013-03-27 00:41:00,39.0,20.0,-100.00,SW,226,2.0,3.0,46,0.00,,,-99.99,,2013-03-27 00:41:00,
2013-03-27 00:51:00,38.0,19.0,-100.00,NW,309,5.0,7.0,46,0.00,,,-99.99,,2013-03-27 00:51:00,
2013-03-27 01:02:00,38.0,20.0,-100.00,WNW,287,6.0,9.0,48,0.00,,,-99.99,,2013-03-27 01:02:00,
2013-03-27 01:11:00,38.0,19.0,-100.00,WNW,296,5.0,7.0,46,0.00,,,-99.99,,2013-03-27 01:11:00,
2013-03-27 01:21:00,37.0,20.0,-100.00,WNW,282,4.0,6.0,49,0.00,,,-99.99,,2013-03-27 01:21:00,
2013-03-27 01:32:00,37.0,21.0,-100.00,West,280,3.0,6.0,51,0.00,,,-99.99,,2013-03-27 01:32:00,
2013-03-27 01:41:00,36.0,21.0,-100.00,WNW,295,3.0,6.0,53,0.00,,,-99.99,,2013-03-27 01:41:00,
2013-03-27 01:52:00,36.0,20.0,-100.00,WNW,295,4.0,4.0,51,0.00,,,-99.99,,2013-03-27 01:52:00,
2013-03-27 02:02:00,36.0,19.0,-100.00,SSW,198,1.0,2.0,50,0.00,,,-99.99,,2013-03-27 02:02:00,
2013-03-27 02:11:00,36.0,19.0,-100.00,SSW,192,2.0,4.0,49,0.00,,,-99.99,,2013-03-27 02:11:00,
2013-03-27 02:21:00,36.0,19.0,-100.00,SSW,200,1.0,1.0,50,0.00,,,-99.99,,2013-03-27 02:21:00,
2013-03-27 02:32:00,36.0,18.0,-100.00,NNE,13,0.0,1.0,47,0.00,,,-99.99,,2013-03-27 02:32:00,
2013-03-27 02:42:00,36.0,18.0,-100.00,WNW,284,0.0,0.0,47,0.00,,,-99.99,,2013-03-27 02:42:00,
2013-03-27 02:52:00,35.0,18.0,-100.00,WSW,241,0.0,1.0,48,0.00,,,-99.99,,2013-03-27 02:52:00,
2013-03-27 03:02:00,36.0,18.0,-100.00,SSW,199,0.0,1.0,49,0.00,,,-99.99,,2013-03-27 03:02:00,
2013-03-27 03:11:00,36.0,17.0,-100.00,South,176,1.0,2.0,47,0.00,,,-99.99,,2013-03-27 03:11:00,
2013-03-27 03:21:00,36.0,17.0,-100.00,SSW,202,2.0,3.0,46,0.00,,,-99.99,,2013-03-27 03:21:00,
2013-03-27 03:32:00,36.0,17.0,-100.00,SSW,196,3.0,4.0,46,0.00,,,-99.99,,2013-03-27 03:32:00,
2013-03-27 03:42:00,36.0,17.0,-100.00,South,188,4.0,5.0,46,0.00,,,-99.99,,2013-03-27 03:42:00,
2013-03-27 03:52:00,36.0,17.0,-100.00,SSW,198,4.0,5.0,46,0.00,,,-99.99,,2013-03-27 03:52:00,
2013-03-27 04:02:00,35.0,18.0,-100.00,South,189,2.0,4.0,48,0.00,,,-99.99,,2013-03-27 04:02:00,
2013-03-27 04:12:00,35.0,18.0,-100.00,SSW,208,1.0,2.0,48,0.00,,,-99.99,,2013-03-27 04:12:00,
2013-03-27 04:22:00,35.0,18.0,-100.00,SW,222,0.0,1.0,51,0.00,,,-99.99,,2013-03-27 04:22:00,
2013-03-27 04:32:00,34.0,17.0,-100.00,SSE,147,0.0,0.0,48,0.00,,,-99.99,,2013-03-27 04:32:00,
2013-03-27 04:42:00,35.0,17.0,-100.00,SSW,200,1.0,2.0,47,0.00,,,-99.99,,2013-03-27 04:42:00,
2013-03-27 04:52:00,35.0,17.0,-100.00,South,191,3.0,4.0,48,0.00,,,-99.99,,2013-03-27 04:52:00,
2013-03-27 05:02:00,34.0,17.0,-100.00,SSW,203,1.0,3.0,48,0.00,,,-99.99,,2013-03-27 05:02:00,
2013-03-27 05:12:00,35.0,17.0,-100.00,SSW,205,3.0,4.0,48,0.00,,,-99.99,,2013-03-27 05:12:00,
2013-03-27 05:22:00,35.0,16.0,-100.00,SSW,195,6.0,6.0,45,0.00,,,-99.99,,2013-03-27 05:22:00,
2013-03-27 05:32:00,35.0,16.0,-100.00,South,188,5.0,6.0,46,0.00,,,-99.99,,2013-03-27 05:32:00,
2013-03-27 05:42:00,35.0,15.0,-100.00,SSW,193,4.0,6.0,45,0.00,,,-99.99,,2013-03-27 05:42:00,
2013-03-27 05:52:00,34.0,16.0,-100.00,South,171,2.0,4.0,47,0.00,,,-99.99,,2013-03-27 05:52:00,
2013-03-27 06:02:00,33.0,16.0,-100.00,South,181,2.0,3.0,48,0.00,,,-99.99,,2013-03-27 06:02:00,
2013-03-27 06:11:00,33.0,15.0,-100.00,SSE,168,1.0,1.0,48,0.00,,,-99.99,,2013-03-27 06:11:00,
2013-03-27 06:22:00,32.0,17.0,-100.00,SE,130,0.0,1.0,53,0.00,,,-99.99,,2013-03-27 06:22:00,
2013-03-27 06:32:00,31.0,17.0,-100.00,SE,126,1.0,3.0,55,0.00,,,-99.99,,2013-03-27 06:32:00,
2013-03-27 06:42:00,34.0,15.0,-100.00,SSW,200,1.0,2.0,46,0.00,,,-99.99,,2013-03-27 06:42:00,
2013-03-27 06:52:00,33.0,15.0,-100.00,SSE,155,0.0,1.0,47,0.00,,,-99.99,,2013-03-27 06:52:00,
2013-03-27 07:02:00,33.0,15.0,-100.00,South,191,2.0,4.0,48,0.00,,,-99.99,,2013-03-27 07:02:00,
2013-03-27 07:11:00,34.0,15.0,-100.00,South,186,3.0,4.0,44,0.00,,,-99.99,,2013-03-27 07:11:00,
2013-03-27 07:21:00,33.0,16.0,-100.00,SW,229,0.0,1.0,49,0.00,,,-99.99,,2013-03-27 07:21:00,
2013-03-27 07:32:00,33.0,15.0,-100.00,South,176,4.0,6.0,46,0.00,,,-99.99,,2013-03-27 07:32:00,
2013-03-27 07:41:00,34.0,16.0,-100.00,SW,219,1.0,4.0,47,0.00,,,-99.99,,2013-03-27 07:41:00,
2013-03-27 07:53:00,32.0,17.0,-100.00,North,0,1.0,2.0,52,0.00,,,-99.99,,2013-03-27 07:53:00,
2013-03-27 08:02:00,32.0,15.0,-100.00,SSW,193,0.0,2.0,49,0.00,,,-99.99,,2013-03-27 08:02:00,
2013-03-27 08:11:00,32.0,15.0,-100.00,SW,220,1.0,3.0,49,0.00,,,-99.99,,2013-03-27 08:11:00,
2013-03-27 08:21:00,31.0,16.0,-100.00,North,7,1.0,2.0,52,0.00,,,-99.99,,2013-03-27 08:21:00,
2013-03-27 08:32:00,32.0,16.0,-100.00,SSE,147,0.0,1.0,53,0.00,,,-99.99,,2013-03-27 08:32:00,
2013-03-27 08:51:00,33.0,15.0,-100.00,South,176,4.0,4.0,48,0.00,,,-99.99,,2013-03-27 08:51:00,
2013-03-27 09:01:00,31.0,15.0,-100.00,South,169,3.0,5.0,51,0.00,,,-99.99,,2013-03-27 09:01:00,
2013-03-27 09:11:00,31.0,16.0,-100.00,SSE,162,4.0,6.0,52,0.00,,,-99.99,,2013-03-27 09:11:00,
2013-03-27 09:21:00,31.0,15.0,-100.00,South,184,1.0,2.0,53,0.00,,,-99.99,,2013-03-27 09:21:00,
2013-03-27 09:32:00,30.0,15.0,-100.00,SE,134,0.0,1.0,54,0.00,,,-99.99,,2013-03-27 09:32:00,
2013-03-27 09:42:00,29.0,14.0,-100.00,ESE,103,2.0,2.0,53,0.00,,,-99.99,,2013-03-27 09:42:00,
2013-03-27 09:52:00,30.0,15.0,-100.00,SW,227,0.0,1.0,54,0.00,,,-99.99,,2013-03-27 09:52:00,
2013-03-27 10:02:00,30.0,15.0,-100.00,NNE,32,0.0,1.0,53,0.00,,,-99.99,,2013-03-27 10:02:00,
2013-03-27 10:12:00,30.0,15.0,-100.00,SE,128,0.0,1.0,54,0.00,,,-99.99,,2013-03-27 10:12:00,
2013-03-27 10:22:00,30.0,15.0,-100.00,SSW,209,1.0,2.0,52,0.00,,,-99.99,,2013-03-27 10:22:00,
2013-03-27 10:32:00,29.0,15.0,-100.00,SW,223,0.0,1.0,55,0.00,,,-99.99,,2013-03-27 10:32:00,
2013-03-27 10:41:00,29.0,15.0,-100.00,SW,230,2.0,3.0,56,0.00,,,-99.99,,2013-03-27 10:41:00,
2013-03-27 10:52:00,29.0,15.0,-100.00,ENE,65,0.0,1.0,56,0.00,,,-99.99,,2013-03-27 10:52:00,
2013-03-27 11:02:00,29.0,15.0,-100.00,East,100,1.0,2.0,56,0.00,,,-99.99,,2013-03-27 11:02:00,
2013-03-27 11:11:00,29.0,15.0,-100.00,East,89,1.0,2.0,55,0.00,,,-99.99,,2013-03-27 11:11:00,
2013-03-27 11:22:00,29.0,16.0,-100.00,East,96,0.0,1.0,58,0.00,,,-99.99,,2013-03-27 11:22:00,
2013-03-27 11:32:00,29.0,16.0,-100.00,East,93,2.0,2.0,59,0.00,,,-99.99,,2013-03-27 11:32:00,
2013-03-27 11:42:00,29.0,16.0,-100.00,ESE,121,2.0,3.0,59,0.00,,,-99.99,,2013-03-27 11:42:00,
2013-03-27 11:52:00,26.0,15.0,-100.00,ESE,116,2.0,4.0,62,0.00,,,-99.99,,2013-03-27 11:52:00,
2013-03-27 12:02:00,28.0,16.0,-100.00,SSE,150,1.0,2.0,59,0.00,,,-99.99,,2013-03-27 12:02:00,
2013-03-27 12:11:00,27.0,15.0,-100.00,East,83,1.0,2.0,59,0.00,,,-99.99,,2013-03-27 12:11:00,
2013-03-27 12:22:00,29.0,16.0,-100.00,SSE,154,1.0,1.0,58,0.00,,,-99.99,,2013-03-27 12:22:00,
2013-03-27 12:32:00,28.0,15.0,-100.00,SSW,210,3.0,5.0,58,0.00,,,-99.99,,2013-03-27 12:32:00,
2013-03-27 12:42:00,29.0,15.0,-100.00,SSE,165,4.0,6.0,56,0.00,,,-99.99,,2013-03-27 12:42:00,
2013-03-27 12:51:00,28.0,15.0,-100.00,SSE,155,7.0,9.0,57,0.00,,,-99.99,,2013-03-27 12:51:00,
2013-03-27 13:02:00,29.0,15.0,-100.00,SSE,152,2.0,4.0,56,0.00,,,-99.99,,2013-03-27 13:02:00,
2013-03-27 13:11:00,29.0,15.0,-100.00,SSE,152,4.0,6.0,55,0.00,,,-99.99,,2013-03-27 13:11:00,
2013-03-27 13:21:00,28.0,15.0,-100.00,ESE,116,6.0,7.0,56,0.00,,,-99.99,,2013-03-27 13:21:00,
2013-03-27 13:32:00,28.0,15.0,-100.00,SE,137,9.0,11.0,56,0.00,,,-99.99,,2013-03-27 13:32:00,
2013-03-27 13:41:00,30.0,14.0,-100.00,SE,131,9.0,10.0,51,0.00,,,-99.99,,2013-03-27 13:41:00,
2013-03-27 13:52:00,29.0,14.0,-100.00,SE,141,9.0,9.0,53,0.00,,,-99.99,,2013-03-27 13:52:00,
2013-03-27 14:02:00,29.0,15.0,-100.00,SE,140,9.0,11.0,54,0.00,,,-99.99,,2013-03-27 14:02:00,
2013-03-27 14:11:00,29.0,16.0,-100.00,SE,138,9.0,11.0,56,0.00,,,-99.99,,2013-03-27 14:11:00,
2013-03-27 14:21:00,29.0,16.0,-100.00,SE,143,10.0,10.0,56,0.00,,,-99.99,,2013-03-27 14:21:00,
2013-03-27 14:32:00,30.0,16.0,-100.00,SE,144,9.0,10.0,56,0.00,,,-99.99,,2013-03-27 14:32:00,
2013-03-27 14:41:00,31.0,16.0,-100.00,SE,136,9.0,9.0,55,0.00,,,-99.99,,2013-03-27 14:41:00,
2013-03-27 14:51:00,31.0,17.0,-100.00,ESE,119,7.0,7.0,55,0.00,,,-99.99,,2013-03-27 14:51:00,
2013-03-27 15:02:00,32.0,17.0,-100.00,ESE,107,6.0,7.0,55,0.00,,,-99.99,,2013-03-27 15:02:00,
2013-03-27 15:11:00,33.0,18.0,-100.00,East,92,4.0,5.0,52,0.00,,,-99.99,,2013-03-27 15:11:00,
2013-03-27 15:21:00,35.0,18.0,-100.00,SW,223,1.0,2.0,49,0.00,,,-99.99,,2013-03-27 15:21:00,
2013-03-27 15:32:00,35.0,18.0,-100.00,West,268,1.0,1.0,49,0.00,,,-99.99,,2013-03-27 15:32:00,
2013-03-27 15:42:00,39.0,18.0,-100.00,South,179,0.0,0.0,41,0.00,,,-99.99,,2013-03-27 15:42:00,
2013-03-27 15:52:00,40.0,18.0,-100.00,WSW,254,0.0,1.0,40,0.00,,,-99.99,,2013-03-27 15:52:00,
2013-03-27 16:02:00,36.0,17.0,-100.00,East,88,4.0,5.0,47,0.00,,,-99.99,,2013-03-27 16:02:00,
2013-03-27 16:12:00,36.0,18.0,-100.00,ENE,76,4.0,5.0,48,0.00,,,-99.99,,2013-03-27 16:12:00,
2013-03-27 16:22:00,36.0,18.0,-100.00,ENE,61,6.0,7.0,47,0.00,,,-99.99,,2013-03-27 16:22:00,
2013-03-27 16:32:00,36.0,18.0,-100.00,East,85,5.0,6.0,47,0.00,,,-99.99,,2013-03-27 16:32:00,
2013-03-27 16:41:00,36.0,18.0,-100.00,NE,55,4.0,6.0,46,0.00,,,-99.99,,2013-03-27 16:41:00,
2013-03-27 16:52:00,37.0,17.0,-100.00,ENE,58,4.0,5.0,45,0.00,,,-99.99,,2013-03-27 16:52:00,
2013-03-27 17:02:00,38.0,18.0,-100.00,NNW,335,1.0,3.0,43,0.00,,,-99.99,,2013-03-27 17:02:00,
2013-03-27 17:11:00,39.0,17.0,-100.00,ENE,62,3.0,4.0,42,0.00,,,-99.99,,2013-03-27 17:11:00,
2013-03-27 17:22:00,40.0,18.0,-100.00,North,357,1.0,4.0,42,0.00,,,-99.99,,2013-03-27 17:22:00,
2013-03-27 17:32:00,39.0,19.0,-100.00,NW,312,4.0,5.0,44,0.00,,,-99.99,,2013-03-27 17:32:00,
2013-03-27 17:44:00,39.0,19.0,-100.00,NNW,343,3.0,6.0,44,0.00,,,-99.99,,2013-03-27 17:44:00,
2013-03-27 17:52:00,39.0,18.0,-100.00,NW,316,3.0,5.0,43,0.00,,,-99.99,,2013-03-27 17:52:00,
2013-03-27 18:02:00,39.0,18.0,-100.00,WNW,296,2.0,4.0,42,0.00,,,-99.99,,2013-03-27 18:02:00,
2013-03-27 18:11:00,39.0,19.0,-100.00,NW,316,2.0,4.0,43,0.00,,,-99.99,,2013-03-27 18:11:00,
2013-03-27 18:22:00,40.0,18.0,-100.00,NW,304,4.0,7.0,41,0.00,,,-99.99,,2013-03-27 18:22:00,
2013-03-27 18:32:00,40.0,19.0,-100.00,NNW,346,3.0,6.0,41,0.00,,,-99.99,,2013-03-27 18:32:00,
2013-03-27 18:42:00,41.0,19.0,-100.00,NW,309,2.0,4.0,41,0.00,,,-99.99,,2013-03-27 18:42:00,
2013-03-27 18:52:00,40.0,18.0,-100.00,NNW,337,2.0,4.0,41,0.00,,,-99.99,,2013-03-27 18:52:00,
2013-03-27 19:02:00,42.0,21.0,-100.00,NNW,343,1.0,3.0,44,0.00,,,-99.99,,2013-03-27 19:02:00,
2013-03-27 19:11:00,43.0,22.0,-100.00,SW,220,2.0,7.0,43,0.00,,,-99.99,,2013-03-27 19:11:00,
2013-03-27 19:21:00,43.0,22.0,-100.00,WSW,257,2.0,7.0,43,0.00,,,-99.99,,2013-03-27 19:21:00,
2013-03-27 19:32:00,42.0,22.0,-100.00,SSE,164,2.0,3.0,45,0.00,,,-99.99,,2013-03-27 19:32:00,
2013-03-27 19:42:00,42.0,22.0,-100.00,ENE,69,2.0,3.0,45,0.00,,,-99.99,,2013-03-27 19:42:00,
2013-03-27 19:52:00,43.0,23.0,-100.00,SSW,213,4.0,6.0,44,0.00,,,-99.99,,2013-03-27 19:52:00,
2013-03-27 20:02:00,43.0,22.0,-100.00,SW,236,4.0,6.0,42,0.00,,,-99.99,,2013-03-27 20:02:00,
2013-03-27 20:11:00,44.0,22.0,-100.00,SSW,213,3.0,5.0,42,0.00,,,-99.99,,2013-03-27 20:11:00,
2013-03-27 20:21:00,45.0,23.0,-100.00,SW,220,2.0,4.0,41,0.00,,,-99.99,,2013-03-27 20:21:00,
2013-03-27 20:32:00,42.0,22.0,-100.00,North,3,4.0,6.0,44,0.00,,,-99.99,,2013-03-27 20:32:00,
2013-03-27 20:42:00,45.0,24.0,-100.00,NE,44,0.0,2.0,43,0.00,,,-99.99,,2013-03-27 20:42:00,
2013-03-27 20:52:00,45.0,25.0,-100.00,SSW,206,4.0,7.0,45,0.00,,,-99.99,,2013-03-27 20:52:00,
2013-03-27 21:01:00,45.0,24.0,-100.00,SSW,212,4.0,6.0,44,0.00,,,-99.99,,2013-03-27 21:01:00,
2013-03-27 21:11:00,45.0,24.0,-100.00,SSW,208,6.0,9.0,43,0.00,,,-99.99,,2013-03-27 21:11:00,
2013-03-27 21:21:00,47.0,23.0,-100.00,ESE,117,1.0,3.0,39,0.00,,,-99.99,,2013-03-27 21:21:00,
2013-03-27 21:32:00,47.0,20.0,-100.00,South,188,6.0,10.0,35,0.00,,,-99.99,,2013-03-27 21:32:00,
2013-03-27 21:42:00,47.0,20.0,-100.00,SSW,213,4.0,7.0,34,0.00,,,-99.99,,2013-03-27 21:42:00,
2013-03-27 21:52:00,46.0,21.0,-100.00,SW,223,6.0,9.0,36,0.00,,,-99.99,,2013-03-27 21:52:00,
2013-03-27 22:02:00,47.0,20.0,-100.00,West,267,4.0,6.0,34,0.00,,,-99.99,,2013-03-27 22:02:00,
2013-03-27 22:12:00,47.0,20.0,-100.00,NNW,347,3.0,7.0,35,0.00,,,-99.99,,2013-03-27 22:12:00,
2013-03-27 22:22:00,48.0,23.0,-100.00,SSW,192,2.0,7.0,36,0.00,,,-99.99,,2013-03-27 22:22:00,
2013-03-27 22:32:00,47.0,22.0,-100.00,South,182,4.0,6.0,37,0.00,,,-99.99,,2013-03-27 22:32:00,
2013-03-27 22:42:00,46.0,23.0,-100.00,SSW,208,8.0,10.0,39,0.00,,,-99.99,,2013-03-27 22:42:00,
2013-03-27 22:52:00,45.0,21.0,-100.00,SW,220,2.0,4.0,37,0.00,,,-99.99,,2013-03-27 22:52:00,
2013-03-27 23:02:00,46.0,19.0,-100.00,SW,232,9.0,15.0,34,0.00,,,-99.99,,2013-03-27 23:02:00,
2013-03-27 23:11:00,48.0,20.0,-100.00,WSW,253,12.0,16.0,33,0.00,,,-99.99,,2013-03-27 23:11:00,
2013-03-27 23:21:00,47.0,22.0,-100.00,WSW,247,12.0,15.0,36,0.00,,,-99.99,,2013-03-27 23:21:00,
2013-03-27 23:32:00,48.0,23.0,-100.00,SW,230,12.0,14.0,37,0.00,,,-99.99,,2013-03-27 23:32:00,
2013-03-27 23:42:00,48.0,20.0,-100.00,WSW,253,10.0,13.0,33,0.00,,,-99.99,,2013-03-27 23:42:00,
2013-03-27 23:51:00,48.0,22.0,-100.00,SW,232,12.0,15.0,36,0.00,,,-99.99,,2013-03-27 23:51:00,